Time,TemperatureF,DewpointF,PressureIn,WindDirection,WindDirectionDegrees,WindSpeedMPH,WindSpeedGustMPH,Humidity,HourlyPrecipIn,Conditions,Clouds,dailyrainin,SoftwareType,DateUTC
2013-03-22 00:00:00,26.9,11.2,29.70,SSW,198,1.0,1.0,51,0.00,,,0.01,Wunderground v.1.15,2013-03-22 04:00:00,
2013-03-22 00:01:00,26.9,11.2,29.70,East,98,1.0,1.0,51,0.00,,,0.00,Wunderground v.1.15,2013-03-22 04:01:00,
2013-03-22 00:03:00,26.8,10.6,29.70,SW,231,1.0,3.0,50,0.00,,,0.00,Wunderground v.1.15,2013-03-22 04:03:00,
2013-03-22 00:04:00,26.8,10.6,29.70,SW,220,1.0,4.0,50,0.00,,,0.00,Wunderground v.1.15,2013-03-22 04:04:00,
2013-03-22 00:10:00,26.7,11.0,29.70,East,99,1.0,2.0,51,0.00,,,0.00,Wunderground v.1.15,2013-03-22 04:10:00,
2013-03-22 00:16:00,26.5,10.8,29.70,NE,37,1.0,2.0,51,0.00,,,0.00,Wunderground v.1.15,2013-03-22 04:16:00,
2013-03-22 00:22:00,26.4,10.7,29.70,NNE,27,1.0,1.0,51,0.00,,,0.00,Wunderground v.1.15,2013-03-22 04:22:00,
2013-03-22 00:27:00,26.3,11.0,29.70,East,80,1.0,3.0,52,0.00,,,0.00,Wunderground v.1.15,2013-03-22 04:27:00,
2013-03-22 00:33:00,26.2,10.9,29.70,NE,47,1.0,4.0,52,0.00,,,0.00,Wunderground v.1.15,2013-03-22 04:33:00,
2013-03-22 00:39:00,26.1,10.9,29.70,North,357,1.0,4.0,52,0.00,,,0.00,Wunderground v.1.15,2013-03-22 04:39:00,
2013-03-22 00:45:00,26.1,10.9,29.70,ENE,75,1.0,2.0,52,0.00,,,0.00,Wunderground v.1.15,2013-03-22 04:45:00,
2013-03-22 00:51:00,25.9,11.1,29.70,North,10,1.0,1.0,53,0.00,,,0.00,Wunderground v.1.15,2013-03-22 04:51:00,
2013-03-22 00:56:00,25.8,11.0,29.70,NE,53,1.0,3.0,53,0.00,,,0.00,Wunderground v.1.15,2013-03-22 04:56:00,
2013-03-22 01:01:00,25.6,11.2,29.70,South,190,1.0,1.0,54,0.00,,,0.00,Wunderground v.1.15,2013-03-22 05:01:00,
2013-03-22 01:07:00,25.5,10.7,29.71,SSW,212,1.0,5.0,53,0.00,,,0.00,Wunderground v.1.15,2013-03-22 05:07:00,
2013-03-22 01:12:00,25.5,11.1,29.70,South,189,1.0,5.0,54,0.00,,,0.00,Wunderground v.1.15,2013-03-22 05:12:00,
2013-03-22 01:18:00,25.3,11.8,29.70,NE,44,1.0,5.0,56,0.00,,,0.00,Wunderground v.1.15,2013-03-22 05:18:00,
2013-03-22 01:24:00,25.0,11.1,29.70,ENE,74,0.0,1.0,55,0.00,,,0.00,Wunderground v.1.15,2013-03-22 05:24:00,
2013-03-22 01:30:00,24.8,11.3,29.70,NNE,25,0.0,0.0,56,0.00,,,0.00,Wunderground v.1.15,2013-03-22 05:30:00,
2013-03-22 01:36:00,24.8,11.7,29.71,SW,222,0.0,1.0,57,0.00,,,0.00,Wunderground v.1.15,2013-03-22 05:36:00,
2013-03-22 01:42:00,24.5,11.0,29.71,South,184,0.0,1.0,56,0.00,,,0.00,Wunderground v.1.15,2013-03-22 05:42:00,
2013-03-22 01:48:00,24.3,11.2,29.71,South,187,0.0,1.0,57,0.00,,,0.00,Wunderground v.1.15,2013-03-22 05:48:00,
2013-03-22 01:53:00,24.1,12.9,29.71,South,175,0.0,0.0,62,0.00,,,0.00,Wunderground v.1.15,2013-03-22 05:53:00,
2013-03-22 01:59:00,23.5,13.1,29.71,South,175,0.0,0.0,64,0.00,,,0.00,Wunderground v.1.15,2013-03-22 05:59:00,
2013-03-22 02:05:00,22.9,13.2,29.71,SE,127,0.0,0.0,66,0.00,,,0.00,Wunderground v.1.15,2013-03-22 06:05:00,
2013-03-22 02:11:00,22.6,12.2,29.71,SE,137,0.0,0.0,64,0.00,,,0.00,Wunderground v.1.15,2013-03-22 06:11:00,
2013-03-22 02:16:00,22.5,12.1,29.71,East,101,0.0,1.0,64,0.00,,,0.00,Wunderground v.1.15,2013-03-22 06:16:00,
2013-03-22 02:22:00,22.8,11.7,29.71,SW,229,0.0,0.0,62,0.00,,,0.00,Wunderground v.1.15,2013-03-22 06:22:00,
2013-03-22 02:27:00,22.9,12.2,29.71,ESE,117,0.0,2.0,63,0.00,,,0.00,Wunderground v.1.15,2013-03-22 06:27:00,
2013-03-22 02:32:00,23.0,11.9,29.71,SW,220,0.0,0.0,62,0.00,,,0.00,Wunderground v.1.15,2013-03-22 06:32:00,
2013-03-22 02:38:00,23.0,11.9,29.71,ESE,113,0.0,1.0,62,0.00,,,0.00,Wunderground v.1.15,2013-03-22 06:38:00,
2013-03-22 02:43:00,22.5,13.2,29.70,SE,144,0.0,0.0,67,0.00,,,0.00,Wunderground v.1.15,2013-03-22 06:43:00,
2013-03-22 02:49:00,22.4,12.1,29.70,SSE,164,0.0,1.0,64,0.00,,,0.00,Wunderground v.1.15,2013-03-22 06:49:00,
2013-03-22 02:55:00,22.6,12.9,29.70,SSE,165,0.0,1.0,66,0.00,,,0.00,Wunderground v.1.15,2013-03-22 06:55:00,
2013-03-22 03:01:00,22.4,12.4,29.70,SSE,150,0.0,0.0,65,0.00,,,0.00,Wunderground v.1.15,2013-03-22 07:01:00,
2013-03-22 03:07:00,22.3,12.7,29.70,SSE,151,0.0,0.0,66,0.00,,,0.00,Wunderground v.1.15,2013-03-22 07:07:00,
2013-03-22 03:13:00,22.1,12.5,29.70,SSE,151,0.0,0.0,66,0.00,,,0.00,Wunderground v.1.15,2013-03-22 07:13:00,
2013-03-22 07:16:00,21.3,13.4,29.71,NE,56,0.0,0.0,71,0.00,,,0.00,Wunderground v.1.15,2013-03-22 11:16:00,
2013-03-22 07:22:00,21.5,13.5,29.72,South,178,0.0,3.0,71,0.00,,,0.00,Wunderground v.1.15,2013-03-22 11:22:00,
2013-03-22 07:27:00,21.7,13.7,29.72,SE,146,0.0,0.0,71,0.00,,,0.00,Wunderground v.1.15,2013-03-22 11:27:00,
2013-03-22 07:33:00,21.9,14.3,29.72,NNW,333,0.0,1.0,72,0.00,,,0.00,Wunderground v.1.15,2013-03-22 11:33:00,
2013-03-22 07:39:00,22.0,14.0,29.72,South,169,0.0,0.0,71,0.00,,,0.00,Wunderground v.1.15,2013-03-22 11:39:00,
2013-03-22 07:44:00,22.3,14.6,29.72,WSW,248,0.0,1.0,72,0.00,,,0.00,Wunderground v.1.15,2013-03-22 11:44:00,
2013-03-22 07:50:00,22.6,14.9,29.72,ESE,112,0.0,2.0,72,0.00,,,0.00,Wunderground v.1.15,2013-03-22 11:50:00,
2013-03-22 07:55:00,23.1,15.4,29.72,SSW,211,0.0,2.0,72,0.00,,,0.00,Wunderground v.1.15,2013-03-22 11:55:00,
2013-03-22 08:02:00,24.1,15.7,29.72,ESE,121,0.0,2.0,70,0.00,,,0.00,Wunderground v.1.15,2013-03-22 12:02:00,
2013-03-22 08:08:00,24.6,15.9,29.73,SE,134,0.0,2.0,69,0.00,,,0.00,Wunderground v.1.15,2013-03-22 12:08:00,
2013-03-22 08:13:00,25.1,16.4,29.73,SSE,154,0.0,0.0,69,0.00,,,0.00,Wunderground v.1.15,2013-03-22 12:13:00,
2013-03-22 08:18:00,25.7,16.6,29.73,ESE,108,0.0,1.0,68,0.00,,,0.00,Wunderground v.1.15,2013-03-22 12:18:00,
2013-03-22 08:24:00,25.9,16.4,29.73,SSW,193,0.0,0.0,67,0.00,,,0.00,Wunderground v.1.15,2013-03-22 12:24:00,
2013-03-22 08:29:00,26.0,16.5,29.73,SSW,192,1.0,4.0,67,0.00,,,0.00,Wunderground v.1.15,2013-03-22 12:29:00,
2013-03-22 08:34:00,26.3,16.5,29.73,East,101,1.0,1.0,66,0.00,,,0.00,Wunderground v.1.15,2013-03-22 12:34:00,
2013-03-22 08:40:00,26.7,16.9,29.73,South,185,0.0,0.0,66,0.00,,,0.00,Wunderground v.1.15,2013-03-22 12:40:00,
2013-03-22 08:46:00,27.4,17.5,29.73,ESE,120,0.0,0.0,66,0.00,,,0.00,Wunderground v.1.15,2013-03-22 12:46:00,
2013-03-22 08:52:00,27.8,17.2,29.73,North,7,1.0,2.0,64,0.00,,,0.00,Wunderground v.1.15,2013-03-22 12:52:00,
2013-03-22 08:57:00,28.2,17.2,29.73,North,349,2.0,2.0,63,0.00,,,0.00,Wunderground v.1.15,2013-03-22 12:57:00,
2013-03-22 09:03:00,29.0,18.0,29.73,South,189,1.0,4.0,63,0.00,,,0.00,Wunderground v.1.15,2013-03-22 13:03:00,
2013-03-22 09:09:00,29.7,18.6,29.73,ESE,118,1.0,4.0,63,0.00,,,0.00,Wunderground v.1.15,2013-03-22 13:09:00,
2013-03-22 09:15:00,30.4,17.8,29.74,SW,217,1.0,2.0,59,0.00,,,0.00,Wunderground v.1.15,2013-03-22 13:15:00,
2013-03-22 09:20:00,31.0,17.9,29.74,SE,127,1.0,3.0,58,0.00,,,0.00,Wunderground v.1.15,2013-03-22 13:20:00,
2013-03-22 09:25:00,31.7,18.2,29.74,South,181,1.0,3.0,57,0.00,,,0.00,Wunderground v.1.15,2013-03-22 13:25:00,
2013-03-22 09:31:00,31.8,18.3,29.74,SSW,212,1.0,1.0,57,0.00,,,0.00,Wunderground v.1.15,2013-03-22 13:31:00,
2013-03-22 09:37:00,31.8,17.9,29.74,ENE,58,1.0,5.0,56,0.00,,,0.00,Wunderground v.1.15,2013-03-22 13:37:00,
2013-03-22 09:43:00,31.8,18.3,29.74,WNW,294,1.0,1.0,57,0.00,,,0.00,Wunderground v.1.15,2013-03-22 13:43:00,
2013-03-22 09:49:00,32.5,18.5,29.74,West,272,0.0,2.0,56,0.00,,,0.00,Wunderground v.1.15,2013-03-22 13:49:00,
2013-03-22 09:54:00,32.2,18.2,29.74,West,273,1.0,3.0,56,0.00,,,0.00,Wunderground v.1.15,2013-03-22 13:54:00,
2013-03-22 10:00:00,32.7,18.3,29.74,West,260,1.0,1.0,55,0.00,,,0.00,Wunderground v.1.15,2013-03-22 14:00:00,
2013-03-22 10:05:00,33.4,18.1,29.74,WSW,253,1.0,4.0,53,0.00,,,0.00,Wunderground v.1.15,2013-03-22 14:05:00,
2013-03-22 10:11:00,33.4,18.5,29.74,ENE,71,1.0,1.0,54,0.00,,,0.00,Wunderground v.1.15,2013-03-22 14:11:00,
2013-03-22 10:17:00,33.3,18.4,29.74,West,280,2.0,3.0,54,0.00,,,0.00,Wunderground v.1.15,2013-03-22 14:17:00,
2013-03-22 10:22:00,34.0,18.6,29.74,East,94,1.0,3.0,53,0.00,,,0.00,Wunderground v.1.15,2013-03-22 14:22:00,
2013-03-22 10:28:00,34.0,18.6,29.74,East,99,1.0,3.0,53,0.00,,,0.00,Wunderground v.1.15,2013-03-22 14:28:00,
2013-03-22 10:34:00,35.3,18.5,29.74,WSW,241,1.0,1.0,50,0.00,,,0.00,Wunderground v.1.15,2013-03-22 14:34:00,
2013-03-22 10:40:00,35.8,18.5,29.75,WSW,239,1.0,1.0,49,0.00,,,0.00,Wunderground v.1.15,2013-03-22 14:40:00,
2013-03-22 10:46:00,34.5,18.2,29.75,SSE,163,1.0,1.0,51,0.00,,,0.00,Wunderground v.1.15,2013-03-22 14:46:00,
2013-03-22 10:51:00,34.3,18.0,29.74,WSW,254,2.0,2.0,51,0.00,,,0.00,Wunderground v.1.15,2013-03-22 14:51:00,
2013-03-22 10:57:00,34.3,18.0,29.75,West,268,2.0,3.0,51,0.00,,,0.00,Wunderground v.1.15,2013-03-22 14:57:00,
2013-03-22 11:02:00,33.8,17.6,29.75,SW,215,2.0,2.0,51,0.00,,,0.00,Wunderground v.1.15,2013-03-22 15:02:00,
2013-03-22 11:08:00,33.7,18.4,29.75,SSW,209,1.0,6.0,53,0.00,,,0.00,Wunderground v.1.15,2013-03-22 15:08:00,
2013-03-22 11:13:00,34.2,18.4,29.75,SSE,158,1.0,1.0,52,0.00,,,0.00,Wunderground v.1.15,2013-03-22 15:13:00,
2013-03-22 11:19:00,33.9,18.1,29.75,West,274,1.0,2.0,52,0.00,,,0.00,Wunderground v.1.15,2013-03-22 15:19:00,
2013-03-22 11:24:00,34.0,18.6,29.75,NNE,25,1.0,2.0,53,0.00,,,0.00,Wunderground v.1.15,2013-03-22 15:24:00,
2013-03-22 11:30:00,34.4,19.0,29.75,ESE,107,1.0,2.0,53,0.00,,,0.00,Wunderground v.1.15,2013-03-22 15:30:00,
2013-03-22 11:36:00,34.7,18.9,29.75,ESE,103,1.0,3.0,52,0.00,,,0.00,Wunderground v.1.15,2013-03-22 15:36:00,
2013-03-22 11:42:00,34.5,18.7,29.75,SSE,160,1.0,2.0,52,0.00,,,0.00,Wunderground v.1.15,2013-03-22 15:42:00,
2013-03-22 11:47:00,34.8,18.5,29.74,WSW,243,1.0,2.0,51,0.00,,,0.00,Wunderground v.1.15,2013-03-22 15:47:00,
2013-03-22 11:53:00,34.8,18.0,29.74,West,263,1.0,2.0,50,0.00,,,0.00,Wunderground v.1.15,2013-03-22 15:53:00,
2013-03-22 11:59:00,35.1,19.2,29.74,WSW,256,1.0,3.0,52,0.00,,,0.00,Wunderground v.1.15,2013-03-22 15:59:00,
2013-03-22 12:04:00,35.2,19.3,29.75,NE,37,1.0,1.0,52,0.00,,,0.00,Wunderground v.1.15,2013-03-22 16:04:00,
2013-03-22 12:10:00,34.8,18.5,29.75,WSW,239,1.0,4.0,51,0.00,,,0.00,Wunderground v.1.15,2013-03-22 16:10:00,
2013-03-22 12:15:00,35.1,19.2,29.75,SW,229,2.0,6.0,52,0.00,,,0.00,Wunderground v.1.15,2013-03-22 16:15:00,
2013-03-22 12:21:00,36.2,18.4,29.75,SW,225,2.0,3.0,48,0.00,,,0.00,Wunderground v.1.15,2013-03-22 16:21:00,
2013-03-22 12:27:00,36.5,18.6,29.74,South,171,1.0,3.0,48,0.00,,,0.00,Wunderground v.1.15,2013-03-22 16:27:00,
2013-03-22 12:33:00,36.0,17.2,29.74,West,279,2.0,4.0,46,0.00,,,0.00,Wunderground v.1.15,2013-03-22 16:33:00,
2013-03-22 12:38:00,35.5,17.7,29.75,WSW,248,1.0,4.0,48,0.00,,,0.00,Wunderground v.1.15,2013-03-22 16:38:00,
2013-03-22 12:44:00,35.9,18.1,29.75,SSE,150,1.0,2.0,48,0.00,,,0.00,Wunderground v.1.15,2013-03-22 16:44:00,
2013-03-22 12:49:00,35.6,17.8,29.75,WSW,238,1.0,2.0,48,0.00,,,0.00,Wunderground v.1.15,2013-03-22 16:49:00,
2013-03-22 12:55:00,35.5,18.2,29.74,SE,140,1.0,1.0,49,0.00,,,0.00,Wunderground v.1.15,2013-03-22 16:55:00,
2013-03-22 13:01:00,35.1,19.2,29.75,West,276,1.0,3.0,52,0.00,,,0.00,Wunderground v.1.15,2013-03-22 17:01:00,
2013-03-22 13:07:00,34.2,20.1,29.75,NNW,328,1.0,3.0,56,0.00,,,0.00,Wunderground v.1.15,2013-03-22 17:07:00,
2013-03-22 13:12:00,34.0,19.9,29.74,NNW,338,1.0,2.0,56,0.00,,,0.00,Wunderground v.1.15,2013-03-22 17:12:00,
2013-03-22 13:18:00,34.3,20.2,29.74,WSW,248,1.0,2.0,56,0.00,,,0.00,Wunderground v.1.15,2013-03-22 17:18:00,
2013-03-22 13:23:00,35.1,21.0,29.74,SE,130,1.0,3.0,56,0.00,,,0.00,Wunderground v.1.15,2013-03-22 17:23:00,
2013-03-22 13:29:00,36.5,21.0,29.74,East,79,1.0,3.0,53,0.00,,,0.00,Wunderground v.1.15,2013-03-22 17:29:00,
2013-03-22 13:35:00,36.6,20.2,29.74,SSW,205,2.0,4.0,51,0.00,,,0.00,Wunderground v.1.15,2013-03-22 17:35:00,
2013-03-22 13:41:00,36.1,19.7,29.73,ENE,63,2.0,2.0,51,0.00,,,0.00,Wunderground v.1.15,2013-03-22 17:41:00,
2013-03-22 13:46:00,36.5,20.1,29.73,WSW,242,1.0,3.0,51,0.00,,,0.00,Wunderground v.1.15,2013-03-22 17:46:00,
2013-03-22 13:52:00,36.2,20.7,29.73,ESE,121,1.0,1.0,53,0.00,,,0.00,Wunderground v.1.15,2013-03-22 17:52:00,
2013-03-22 13:57:00,35.8,19.0,29.73,NNE,19,2.0,3.0,50,0.00,,,0.00,Wunderground v.1.15,2013-03-22 17:57:00,
2013-03-22 14:03:00,35.4,18.1,29.73,South,174,2.0,3.0,49,0.00,,,0.00,Wunderground v.1.15,2013-03-22 18:03:00,
2013-03-22 14:09:00,35.3,19.0,29.73,SSW,201,1.0,3.0,51,0.00,,,0.00,Wunderground v.1.15,2013-03-22 18:09:00,
2013-03-22 14:14:00,35.3,18.0,29.73,West,272,1.0,3.0,49,0.00,,,0.00,Wunderground v.1.15,2013-03-22 18:14:00,
2013-03-22 14:20:00,35.2,18.9,29.73,SW,234,1.0,1.0,51,0.00,,,0.00,Wunderground v.1.15,2013-03-22 18:20:00,
2013-03-22 14:26:00,34.6,18.3,29.73,ESE,120,2.0,3.0,51,0.00,,,0.00,Wunderground v.1.15,2013-03-22 18:26:00,
2013-03-22 14:32:00,34.3,19.8,29.73,WSW,251,2.0,2.0,55,0.00,,,0.00,Wunderground v.1.15,2013-03-22 18:32:00,
2013-03-22 14:38:00,34.2,20.1,29.73,WSW,250,1.0,3.0,56,0.00,,,0.00,Wunderground v.1.15,2013-03-22 18:38:00,
2013-03-22 14:44:00,34.7,18.9,29.73,SW,221,1.0,3.0,52,0.00,,,0.00,Wunderground v.1.15,2013-03-22 18:44:00,
2013-03-22 14:50:00,35.6,19.2,29.72,SW,225,1.0,2.0,51,0.00,,,0.00,Wunderground v.1.15,2013-03-22 18:50:00,
2013-03-22 14:56:00,36.4,18.6,29.73,WNW,286,2.0,3.0,48,0.00,,,0.00,Wunderground v.1.15,2013-03-22 18:56:00,
2013-03-22 15:01:00,37.1,18.7,29.72,SSE,149,1.0,2.0,47,0.00,,,0.00,Wunderground v.1.15,2013-03-22 19:01:00,
2013-03-22 15:06:00,37.6,18.7,29.72,North,359,1.0,2.0,46,0.00,,,0.00,Wunderground v.1.15,2013-03-22 19:06:00,
2013-03-22 15:11:00,37.6,18.7,29.73,ESE,112,1.0,2.0,46,0.00,,,0.00,Wunderground v.1.15,2013-03-22 19:11:00,
2013-03-22 15:17:00,37.6,18.7,29.72,SE,141,2.0,3.0,46,0.00,,,0.00,Wunderground v.1.15,2013-03-22 19:17:00,
2013-03-22 15:23:00,37.4,19.0,29.73,WSW,253,2.0,3.0,47,0.00,,,0.00,Wunderground v.1.15,2013-03-22 19:23:00,
2013-03-22 15:29:00,37.0,18.6,29.73,WSW,242,2.0,3.0,47,0.00,,,0.00,Wunderground v.1.15,2013-03-22 19:29:00,
2013-03-22 15:35:00,36.7,18.3,29.73,SE,142,1.0,4.0,47,0.00,,,0.00,Wunderground v.1.15,2013-03-22 19:35:00,
2013-03-22 15:41:00,36.7,18.8,29.73,SSE,162,2.0,3.0,48,0.00,,,0.00,Wunderground v.1.15,2013-03-22 19:41:00,
2013-03-22 15:47:00,36.5,18.2,29.73,NNE,23,3.0,5.0,47,0.00,,,0.00,Wunderground v.1.15,2013-03-22 19:47:00,
2013-03-22 15:53:00,36.0,17.7,29.73,SE,125,3.0,3.0,47,0.00,,,0.00,Wunderground v.1.15,2013-03-22 19:53:00,
2013-03-22 15:59:00,36.2,19.8,29.73,SE,137,1.0,3.0,51,0.00,,,0.00,Wunderground v.1.15,2013-03-22 19:59:00,
2013-03-22 16:05:00,36.2,19.8,29.73,North,7,1.0,4.0,51,0.00,,,0.00,Wunderground v.1.15,2013-03-22 20:05:00,
2013-03-22 16:11:00,36.2,19.8,29.73,SE,125,2.0,4.0,51,0.00,,,0.00,Wunderground v.1.15,2013-03-22 20:11:00,
2013-03-22 16:16:00,36.1,20.2,29.73,West,279,2.0,4.0,52,0.00,,,0.00,Wunderground v.1.15,2013-03-22 20:16:00,
2013-03-22 16:22:00,36.2,19.8,29.74,WSW,243,2.0,3.0,51,0.00,,,0.00,Wunderground v.1.15,2013-03-22 20:22:00,
2013-03-22 16:28:00,35.6,20.1,29.74,SE,134,2.0,5.0,53,0.00,,,0.00,Wunderground v.1.15,2013-03-22 20:28:00,
2013-03-22 16:34:00,35.5,21.3,29.74,SSW,206,2.0,2.0,56,0.00,,,0.00,Wunderground v.1.15,2013-03-22 20:34:00,
2013-03-22 16:40:00,35.5,21.3,29.73,SW,227,1.0,1.0,56,0.00,,,0.00,Wunderground v.1.15,2013-03-22 20:40:00,
2013-03-22 16:46:00,35.5,20.9,29.74,SSW,205,1.0,1.0,55,0.00,,,0.00,Wunderground v.1.15,2013-03-22 20:46:00,
2013-03-22 16:52:00,35.5,21.3,29.73,SW,227,1.0,2.0,56,0.00,,,0.00,Wunderground v.1.15,2013-03-22 20:52:00,
2013-03-22 16:58:00,35.2,20.6,29.74,South,182,1.0,4.0,55,0.00,,,0.00,Wunderground v.1.15,2013-03-22 20:58:00,
2013-03-22 17:04:00,35.2,21.1,29.74,SSW,192,1.0,3.0,56,0.00,,,0.00,Wunderground v.1.15,2013-03-22 21:04:00,
2013-03-22 17:09:00,35.1,20.5,29.74,South,178,1.0,3.0,55,0.00,,,0.00,Wunderground v.1.15,2013-03-22 21:09:00,
2013-03-22 17:15:00,35.0,20.9,29.74,South,188,1.0,3.0,56,0.00,,,0.00,Wunderground v.1.15,2013-03-22 21:15:00,
2013-03-22 17:21:00,34.9,21.2,29.74,NNW,348,1.0,1.0,57,0.00,,,0.00,Wunderground v.1.15,2013-03-22 21:21:00,
2013-03-22 17:27:00,35.1,21.0,29.74,North,353,1.0,3.0,56,0.00,,,0.00,Wunderground v.1.15,2013-03-22 21:27:00,
2013-03-22 17:33:00,35.3,21.2,29.74,WSW,242,1.0,3.0,56,0.00,,,0.00,Wunderground v.1.15,2013-03-22 21:33:00,
2013-03-22 17:39:00,35.1,21.0,29.74,SW,219,1.0,3.0,56,0.00,,,0.00,Wunderground v.1.15,2013-03-22 21:39:00,
2013-03-22 17:45:00,35.1,21.0,29.74,SW,224,1.0,4.0,56,0.00,,,0.00,Wunderground v.1.15,2013-03-22 21:45:00,
2013-03-22 17:51:00,34.9,20.8,29.74,East,96,1.0,1.0,56,0.00,,,0.00,Wunderground v.1.15,2013-03-22 21:51:00,
2013-03-22 17:57:00,34.7,20.6,29.74,West,269,1.0,5.0,56,0.00,,,0.00,Wunderground v.1.15,2013-03-22 21:57:00,
2013-03-22 18:02:00,34.6,20.5,29.74,SW,231,2.0,2.0,56,0.00,,,0.00,Wunderground v.1.15,2013-03-22 22:02:00,
2013-03-22 18:08:00,34.7,20.6,29.74,ESE,120,2.0,4.0,56,0.00,,,0.00,Wunderground v.1.15,2013-03-22 22:08:00,
2013-03-22 18:14:00,34.8,20.7,29.75,SSW,210,2.0,3.0,56,0.00,,,0.00,Wunderground v.1.15,2013-03-22 22:14:00,
2013-03-22 18:19:00,34.7,20.6,29.75,WNW,295,1.0,3.0,56,0.00,,,0.00,Wunderground v.1.15,2013-03-22 22:19:00,
2013-03-22 18:25:00,34.4,20.3,29.75,WSW,240,1.0,3.0,56,0.00,,,0.00,Wunderground v.1.15,2013-03-22 22:25:00,
2013-03-22 18:31:00,34.2,20.1,29.75,SW,215,1.0,2.0,56,0.00,,,0.00,Wunderground v.1.15,2013-03-22 22:31:00,
2013-03-22 18:37:00,34.0,20.8,29.76,WSW,237,1.0,2.0,58,0.00,,,0.00,Wunderground v.1.15,2013-03-22 22:37:00,
2013-03-22 18:43:00,33.8,19.7,29.76,WSW,250,1.0,3.0,56,0.00,,,0.00,Wunderground v.1.15,2013-03-22 22:43:00,
2013-03-22 18:49:00,33.8,20.6,29.76,SW,225,1.0,3.0,58,0.00,,,0.00,Wunderground v.1.15,2013-03-22 22:49:00,
2013-03-22 18:55:00,33.7,20.5,29.76,SSE,160,1.0,3.0,58,0.00,,,0.00,Wunderground v.1.15,2013-03-22 22:55:00,
2013-03-22 19:01:00,33.6,20.4,29.77,WSW,257,1.0,2.0,58,0.00,,,0.00,Wunderground v.1.15,2013-03-22 23:01:00,
2013-03-22 19:07:00,33.6,20.4,29.77,North,357,1.0,4.0,58,0.00,,,0.00,Wunderground v.1.15,2013-03-22 23:07:00,
2013-03-22 19:12:00,33.5,20.7,29.77,North,357,1.0,1.0,59,0.00,,,0.00,Wunderground v.1.15,2013-03-22 23:12:00,
2013-03-22 19:17:00,33.5,20.7,29.77,NNW,347,2.0,4.0,59,0.00,,,0.00,Wunderground v.1.15,2013-03-22 23:17:00,
2013-03-22 19:23:00,33.3,21.3,29.77,ESE,106,2.0,2.0,61,0.00,,,0.00,Wunderground v.1.15,2013-03-22 23:23:00,
2013-03-22 19:29:00,33.1,21.1,29.77,SSW,192,2.0,3.0,61,0.00,,,0.00,Wunderground v.1.15,2013-03-22 23:29:00,
2013-03-22 19:35:00,33.1,21.1,29.78,South,177,2.0,7.0,61,0.00,,,0.00,Wunderground v.1.15,2013-03-22 23:35:00,
2013-03-22 19:41:00,32.9,20.9,29.78,West,261,2.0,2.0,61,0.00,,,0.00,Wunderground v.1.15,2013-03-22 23:41:00,
2013-03-22 19:47:00,32.8,20.8,29.78,WSW,248,1.0,6.0,61,0.00,,,0.00,Wunderground v.1.15,2013-03-22 23:47:00,
2013-03-22 19:53:00,32.7,20.7,29.79,West,262,1.0,4.0,61,0.00,,,0.00,Wunderground v.1.15,2013-03-22 23:53:00,
2013-03-22 19:59:00,32.7,20.7,29.79,WNW,285,2.0,5.0,61,0.00,,,0.00,Wunderground v.1.15,2013-03-22 23:59:00,
2013-03-22 20:05:00,32.5,20.9,29.79,SSW,196,1.0,7.0,62,0.00,,,0.00,Wunderground v.1.15,2013-03-23 00:05:00,
2013-03-22 20:12:00,32.4,20.8,29.80,ESE,123,1.0,1.0,62,0.00,,,0.00,Wunderground v.1.15,2013-03-23 00:12:00,
2013-03-22 20:18:00,32.4,21.2,29.80,NE,43,1.0,2.0,63,0.00,,,0.00,Wunderground v.1.15,2013-03-23 00:18:00,
2013-03-22 20:24:00,32.2,20.6,29.80,WNW,292,1.0,4.0,62,0.00,,,0.00,Wunderground v.1.15,2013-03-23 00:24:00,
2013-03-22 20:29:00,32.3,20.7,29.80,SSE,148,1.0,5.0,62,0.00,,,0.00,Wunderground v.1.15,2013-03-23 00:29:00,
2013-03-22 20:34:00,32.1,20.9,29.80,ESE,106,1.0,4.0,63,0.00,,,0.00,Wunderground v.1.15,2013-03-23 00:34:00,
2013-03-22 20:40:00,32.0,20.8,29.81,WNW,288,1.0,3.0,63,0.00,,,0.00,Wunderground v.1.15,2013-03-23 00:40:00,
2013-03-22 20:46:00,32.1,21.3,29.81,WSW,247,1.0,3.0,64,0.00,,,0.00,Wunderground v.1.15,2013-03-23 00:46:00,
2013-03-22 20:52:00,32.3,20.7,29.81,SSE,164,2.0,4.0,62,0.00,,,0.00,Wunderground v.1.15,2013-03-23 00:52:00,
2013-03-22 20:58:00,32.3,20.7,29.82,North,2,1.0,4.0,62,0.00,,,0.00,Wunderground v.1.15,2013-03-23 00:58:00,
2013-03-22 21:03:00,32.3,20.7,29.82,ESE,121,1.0,2.0,62,0.00,,,0.00,Wunderground v.1.15,2013-03-23 01:03:00,
2013-03-22 21:08:00,32.3,20.7,29.82,SW,229,1.0,2.0,62,0.00,,,0.00,Wunderground v.1.15,2013-03-23 01:08:00,
2013-03-22 21:14:00,32.3,21.1,29.82,SW,231,1.0,3.0,63,0.00,,,0.00,Wunderground v.1.15,2013-03-23 01:14:00,
2013-03-22 21:20:00,32.2,21.0,29.82,West,276,1.0,4.0,63,0.00,,,0.00,Wunderground v.1.15,2013-03-23 01:20:00,
2013-03-22 21:25:00,32.2,21.0,29.82,SSW,202,1.0,4.0,63,0.00,,,0.00,Wunderground v.1.15,2013-03-23 01:25:00,
2013-03-22 21:30:00,32.1,20.9,29.82,West,272,1.0,1.0,63,0.00,,,0.00,Wunderground v.1.15,2013-03-23 01:30:00,
2013-03-22 21:35:00,32.0,20.8,29.82,WSW,245,1.0,3.0,63,0.00,,,0.00,Wunderground v.1.15,2013-03-23 01:35:00,
2013-03-22 21:40:00,32.0,20.8,29.82,West,260,1.0,1.0,63,0.00,,,0.00,Wunderground v.1.15,2013-03-23 01:40:00,
2013-03-22 21:46:00,31.9,21.1,29.82,SSW,204,2.0,2.0,64,0.00,,,0.00,Wunderground v.1.15,2013-03-23 01:46:00,
2013-03-22 21:52:00,31.6,21.2,29.82,SSW,199,1.0,1.0,65,0.00,,,0.00,Wunderground v.1.15,2013-03-23 01:52:00,
2013-03-22 21:58:00,31.4,21.0,29.83,SSW,192,0.0,1.0,65,0.00,,,0.00,Wunderground v.1.15,2013-03-23 01:58:00,
2013-03-22 22:04:00,31.4,21.0,29.83,West,269,1.0,2.0,65,0.00,,,0.00,Wunderground v.1.15,2013-03-23 02:04:00,
2013-03-22 22:09:00,31.3,21.3,29.82,WSW,238,1.0,2.0,66,0.00,,,0.00,Wunderground v.1.15,2013-03-23 02:09:00,
2013-03-22 22:14:00,31.2,21.2,29.82,SSW,192,1.0,3.0,66,0.00,,,0.00,Wunderground v.1.15,2013-03-23 02:14:00,
2013-03-22 22:20:00,31.2,21.2,29.82,NW,316,1.0,1.0,66,0.00,,,0.00,Wunderground v.1.15,2013-03-23 02:20:00,
2013-03-22 22:26:00,31.0,22.0,29.82,ENE,63,0.0,1.0,69,0.00,,,0.00,Wunderground v.1.15,2013-03-23 02:26:00,
2013-03-22 22:32:00,30.8,21.1,29.82,ESE,105,0.0,0.0,67,0.00,,,0.00,Wunderground v.1.15,2013-03-23 02:32:00,
2013-03-22 22:38:00,30.6,21.3,29.82,SSE,155,0.0,1.0,68,0.00,,,0.00,Wunderground v.1.15,2013-03-23 02:38:00,
2013-03-22 22:44:00,30.7,21.0,29.81,South,179,1.0,3.0,67,0.00,,,0.00,Wunderground v.1.15,2013-03-23 02:44:00,
2013-03-22 22:50:00,30.4,21.4,29.82,SW,231,1.0,1.0,69,0.00,,,0.00,Wunderground v.1.15,2013-03-23 02:50:00,
2013-03-22 22:56:00,30.5,21.2,29.82,SSW,195,1.0,3.0,68,0.00,,,0.00,Wunderground v.1.15,2013-03-23 02:56:00,
2013-03-22 23:02:00,30.6,21.6,29.82,SSW,195,1.0,3.0,69,0.00,,,0.00,Wunderground v.1.15,2013-03-23 03:02:00,
2013-03-22 23:07:00,30.5,21.5,29.82,West,272,0.0,3.0,69,0.00,,,0.00,Wunderground v.1.15,2013-03-23 03:07:00,
2013-03-22 23:12:00,30.6,21.6,29.82,ESE,103,0.0,1.0,69,0.00,,,0.00,Wunderground v.1.15,2013-03-23 03:12:00,
2013-03-22 23:18:00,30.7,21.7,29.82,SW,227,0.0,2.0,69,0.00,,,0.00,Wunderground v.1.15,2013-03-23 03:18:00,
2013-03-22 23:24:00,30.7,22.1,29.82,South,189,1.0,1.0,70,0.00,,,0.00,Wunderground v.1.15,2013-03-23 03:24:00,
2013-03-22 23:29:00,30.6,22.0,29.82,SW,217,1.0,1.0,70,0.00,,,0.00,Wunderground v.1.15,2013-03-23 03:29:00,
2013-03-22 23:35:00,30.4,22.1,29.81,WNW,291,1.0,1.0,71,0.00,,,0.00,Wunderground v.1.15,2013-03-23 03:35:00,
2013-03-22 23:41:00,30.3,22.0,29.82,SW,221,0.0,0.0,71,0.00,,,0.00,Wunderground v.1.15,2013-03-23 03:41:00,
2013-03-22 23:47:00,30.2,22.3,29.82,SSW,200,0.0,4.0,72,0.00,,,0.00,Wunderground v.1.15,2013-03-23 03:47:00,
2013-03-22 23:53:00,30.2,21.9,29.82,SSW,197,0.0,1.0,71,0.00,,,0.00,Wunderground v.1.15,2013-03-23 03:53:00,
2013-03-22 23:59:00,30.1,22.2,29.82,SSE,159,0.0,1.0,72,0.00,,,0.00,Wunderground v.1.15,2013-03-23 03:59:00,